AU-0107 weather

Midway
Western Australia, Australia

Public forecast

Using degrees Celsius for public forecast. Weather courtesy of forecast.io.

Closest aviation weather report (METAR) to Midway

Closest report is Perth Jandakot Airport, 34.8 nm (64.5 km) N. Retrieved 2020/04/10 06:30 UTC (4 minutes ago):

YPJT 100630Z AUTO 26007KT 9999 // ////// 34/12 Q1015 RF000/0000

Closest aviation forecast (TAF) to Midway

Closest forecast is Perth Jandakot Airport, 34.8 nm (64.5 km) N. Retrieved 2020/04/10 06:00 UTC (34 minutes ago):

TAF YPJT 100510Z 1006/1100 23010KT CAVOK FM101200 16006KT CAVOK FM101600 08008KT CAVOK